createdAt,value
2022-10-04T00:01:51.773Z,152771.66
2022-10-04T00:04:29.272Z,152749.69
2022-10-04T00:07:02.113Z,152743.19
2022-10-04T00:09:35.155Z,152714.75
2022-10-04T00:12:08.684Z,152703.09
2022-10-04T00:14:40.438Z,152692.75
2022-10-04T00:17:12.898Z,152673.34
2022-10-04T00:19:45.309Z,152648.75
2022-10-04T00:22:20.276Z,152631.97
2022-10-04T00:25:05.855Z,152628.06
2022-10-04T00:27:39.403Z,152655.25
2022-10-04T00:30:25.395Z,152668.16
2022-10-04T00:33:03.544Z,152694.06
2022-10-04T00:35:48.736Z,152670.78
2022-10-04T00:38:20.111Z,152668.16
2022-10-04T00:40:55.473Z,152683.69
2022-10-04T00:43:33.750Z,152687.56
2022-10-04T00:46:06.265Z,152673.34
2022-10-04T00:48:47.414Z,152660.44
2022-10-04T00:51:24.649Z,152668.16
2022-10-04T00:54:00.381Z,152648.75
2022-10-04T00:56:35.674Z,152603.50
2022-10-04T00:59:13.912Z,152603.50
2022-10-04T01:01:47.474Z,152581.53
2022-10-04T01:04:30.012Z,152575.03
2022-10-04T01:07:02.382Z,152563.41
2022-10-04T01:09:34.917Z,152538.84
2022-10-04T01:12:07.009Z,152514.28
2022-10-04T01:14:45.510Z,152492.34
2022-10-04T01:17:16.209Z,152476.81
2022-10-04T01:19:53.184Z,152484.56
2022-10-04T01:22:38.116Z,152483.28
2022-10-04T01:25:08.513Z,152465.13
2022-10-04T01:27:43.150Z,152467.78
2022-10-04T01:30:14.846Z,152463.84
2022-10-04T01:32:46.448Z,152444.44
2022-10-04T01:35:19.306Z,152444.44
2022-10-04T01:37:52.642Z,152439.28
2022-10-04T01:40:23.147Z,152438.00
2022-10-04T01:42:56.290Z,152457.38
2022-10-04T01:45:27.582Z,152509.13
2022-10-04T01:47:59.956Z,152509.13
2022-10-04T01:50:32.226Z,152529.78
2022-10-04T01:53:13.335Z,152542.75
2022-10-04T01:55:46.645Z,152531.13
2022-10-04T01:58:20.902Z,152496.16
2022-10-04T02:00:54.002Z,152510.41
2022-10-04T02:03:29.897Z,152507.84
2022-10-04T02:06:02.191Z,152493.63
2022-10-04T02:08:36.847Z,152520.75
2022-10-04T02:11:07.733Z,152518.19
2022-10-04T02:13:42.460Z,152558.25
2022-10-04T02:16:14.124Z,152595.78
2022-10-04T02:18:47.999Z,152581.53
2022-10-04T02:21:18.246Z,152550.47
2022-10-04T02:23:52.461Z,152576.38
2022-10-04T02:26:23.422Z,152550.47
2022-10-04T02:28:54.316Z,152568.59
2022-10-04T02:31:39.540Z,152559.53
2022-10-04T02:34:09.676Z,152571.19
2022-10-04T02:36:42.967Z,152604.78
2022-10-04T02:39:18.358Z,152608.69
2022-10-04T02:41:51.928Z,152597.06
2022-10-04T02:44:26.617Z,152606.13
2022-10-04T02:46:59.674Z,152586.72
2022-10-04T02:49:32.727Z,152577.66
2022-10-04T02:52:06.181Z,152568.59
2022-10-04T02:54:44.001Z,152556.97
2022-10-04T02:57:20.274Z,152590.59
2022-10-04T02:59:50.275Z,152612.56
2022-10-04T03:02:29.566Z,152629.34
2022-10-04T03:05:07.425Z,152646.19
2022-10-04T03:07:38.261Z,152631.97
2022-10-04T03:10:15.507Z,152655.25
2022-10-04T03:12:46.400Z,152679.84
2022-10-04T03:15:18.234Z,152657.81
2022-10-04T03:17:48.197Z,152679.84
2022-10-04T03:20:21.484Z,152653.94
2022-10-04T03:23:01.102Z,152695.34
2022-10-04T03:25:41.030Z,152679.84
2022-10-04T03:28:11.276Z,152691.47
2022-10-04T03:30:46.322Z,152668.16
2022-10-04T03:33:20.015Z,152694.06
2022-10-04T03:35:51.962Z,152730.28
2022-10-04T03:38:22.711Z,152719.94
2022-10-04T03:40:59.211Z,152726.38
2022-10-04T03:43:31.885Z,152722.50
2022-10-04T03:46:02.822Z,152701.81
2022-10-04T03:48:34.937Z,152714.75
2022-10-04T03:51:06.635Z,152731.56
2022-10-04T03:53:43.455Z,152692.75
2022-10-04T03:56:20.197Z,152714.75
2022-10-04T03:58:53.276Z,152727.66
2022-10-04T04:01:31.830Z,152712.16
2022-10-04T04:04:07.090Z,152708.25
2022-10-04T04:06:45.139Z,152687.56
2022-10-04T04:09:20.919Z,152696.63
2022-10-04T04:11:54.238Z,152716.03
2022-10-04T04:14:27.543Z,152696.63
2022-10-04T04:17:18.152Z,152686.28
2022-10-04T04:19:49.965Z,152718.59
2022-10-04T04:22:21.239Z,152692.75
2022-10-04T04:24:52.599Z,152683.69
2022-10-04T04:27:29.154Z,152710.88
2022-10-04T04:30:02.224Z,152713.44
2022-10-04T04:32:43.351Z,152701.81
2022-10-04T04:35:26.694Z,152721.22
2022-10-04T04:38:08.456Z,152738.00
2022-10-04T04:40:38.330Z,152717.31
2022-10-04T04:43:19.417Z,152719.94
2022-10-04T04:46:14.953Z,152708.25
2022-10-04T04:48:46.361Z,152699.25
2022-10-04T04:51:25.265Z,152713.44
2022-10-04T04:53:56.767Z,152694.06
2022-10-04T04:56:30.141Z,152677.22
2022-10-04T04:59:05.989Z,152673.34
2022-10-04T05:01:40.853Z,152692.75
2022-10-04T05:04:22.199Z,152672.06
2022-10-04T05:07:03.928Z,152664.31
2022-10-04T05:09:34.821Z,152677.22
2022-10-04T05:12:07.786Z,152672.06
2022-10-04T05:14:41.305Z,152677.22
2022-10-04T05:17:10.980Z,152673.34
2022-10-04T05:19:42.154Z,152705.69
2022-10-04T05:22:15.147Z,152713.44
2022-10-04T05:24:46.047Z,152708.25
2022-10-04T05:27:18.357Z,152723.81
2022-10-04T05:29:58.731Z,152687.56
2022-10-04T05:32:32.555Z,152705.69
2022-10-04T05:35:02.549Z,152712.16
2022-10-04T05:37:48.468Z,152732.84
2022-10-04T05:40:35.891Z,152776.84
2022-10-04T05:43:05.591Z,152809.22
2022-10-04T05:45:38.651Z,152841.53
2022-10-04T05:48:10.731Z,152867.44
2022-10-04T05:50:42.592Z,152893.31
2022-10-04T05:53:17.467Z,152908.84
2022-10-04T05:55:53.250Z,152908.84
2022-10-04T05:58:35.695Z,152914.03
2022-10-04T06:01:16.575Z,152911.41
2022-10-04T06:03:52.176Z,152906.25
2022-10-04T06:06:25.728Z,152894.59
2022-10-04T06:09:04.529Z,152884.25
2022-10-04T06:11:41.060Z,152901.06
2022-10-04T06:14:29.356Z,152920.47
2022-10-04T06:17:10.118Z,152945.13
2022-10-04T06:19:58.467Z,153002.09
2022-10-04T06:22:29.482Z,153083.66
2022-10-04T06:25:03.661Z,153170.47
2022-10-04T06:27:36.952Z,153233.94
2022-10-04T06:30:08.154Z,153228.75
2022-10-04T06:32:56.967Z,153224.88
2022-10-04T06:35:44.815Z,153184.72
2022-10-04T06:38:31.298Z,153171.75
2022-10-04T06:41:07.191Z,153169.16
2022-10-04T06:43:45.680Z,153157.47
2022-10-04T06:46:19.026Z,153161.38
2022-10-04T06:49:03.478Z,153157.47
2022-10-04T06:51:48.152Z,153136.78
2022-10-04T06:54:32.538Z,153154.91
2022-10-04T06:57:12.658Z,153217.06
2022-10-04T06:59:55.801Z,153259.84
2022-10-04T07:02:29.699Z,153253.38
2022-10-04T07:05:09.334Z,153250.75
2022-10-04T07:07:42.153Z,153226.16
2022-10-04T07:10:26.633Z,153263.75
2022-10-04T07:12:59.574Z,153335.00
2022-10-04T07:15:31.343Z,153383.00
2022-10-04T07:18:06.305Z,153406.28
2022-10-04T07:20:39.481Z,153430.91
2022-10-04T07:23:14.479Z,153476.34
2022-10-04T07:25:47.066Z,153526.88
2022-10-04T07:28:31.749Z,153556.72
2022-10-04T07:31:03.924Z,153591.72
2022-10-04T07:33:35.817Z,153700.72
2022-10-04T07:36:11.692Z,153696.75
2022-10-04T07:38:47.383Z,153677.31
2022-10-04T07:41:26.170Z,153668.22
2022-10-04T07:43:58.578Z,153637.09
2022-10-04T07:46:32.873Z,153690.28
2022-10-04T07:49:03.078Z,153700.72
2022-10-04T07:51:37.521Z,153724.06
2022-10-04T07:54:14.066Z,153786.31
2022-10-04T07:56:49.111Z,153666.94
2022-10-04T07:59:26.756Z,153637.09
2022-10-04T08:02:02.034Z,153647.47
2022-10-04T08:04:40.750Z,153661.75
2022-10-04T08:07:18.515Z,153779.84
2022-10-04T08:10:00.834Z,153838.25
2022-10-04T08:12:36.983Z,153843.44
2022-10-04T08:15:19.824Z,153826.53
2022-10-04T08:17:54.324Z,153855.09
2022-10-04T08:20:29.595Z,153803.22
2022-10-04T08:23:09.525Z,153851.19
2022-10-04T08:25:44.725Z,153799.31
2022-10-04T08:28:35.297Z,153738.31
2022-10-04T08:31:11.651Z,153770.75
2022-10-04T08:33:56.511Z,153781.13
2022-10-04T08:36:31.147Z,153785.03
2022-10-04T08:39:04.179Z,153899.22
2022-10-04T08:41:54.232Z,153844.72
2022-10-04T08:44:43.182Z,153798.03
2022-10-04T08:47:26.277Z,153791.50
2022-10-04T08:50:05.860Z,153796.69
2022-10-04T08:52:48.863Z,153831.72
2022-10-04T08:55:35.462Z,153853.81
2022-10-04T08:58:16.074Z,153838.25
2022-10-04T09:01:04.343Z,153920.00
2022-10-04T09:03:51.911Z,153899.22
2022-10-04T09:06:36.468Z,153869.38
2022-10-04T09:09:30.137Z,153883.66
2022-10-04T09:12:20.269Z,153853.81
2022-10-04T09:15:05.331Z,153823.97
2022-10-04T09:17:42.302Z,153809.69
2022-10-04T09:20:39.911Z,153873.28
2022-10-04T09:23:15.293Z,153878.47
2022-10-04T09:25:52.617Z,153948.56
2022-10-04T09:28:42.300Z,153979.69
2022-10-04T09:31:24.014Z,153912.22
2022-10-04T09:33:59.786Z,153920.00
2022-10-04T09:36:54.072Z,153879.75
2022-10-04T09:39:38.682Z,153933.00
2022-10-04T09:42:17.967Z,153920.00
2022-10-04T09:44:56.520Z,153926.47
2022-10-04T09:47:38.113Z,153894.03
2022-10-04T09:50:32.088Z,153923.91
2022-10-04T09:53:09.362Z,153971.94
2022-10-04T09:55:51.745Z,154008.28
2022-10-04T09:58:39.204Z,154008.28
2022-10-04T10:01:17.137Z,154055.03
2022-10-04T10:04:03.362Z,154119.97
2022-10-04T10:06:42.440Z,154108.28
2022-10-04T10:09:20.071Z,154061.56
2022-10-04T10:12:06.709Z,154058.94
2022-10-04T10:14:55.962Z,154095.28
2022-10-04T10:17:33.193Z,154088.81
2022-10-04T10:20:18.289Z,154186.22
2022-10-04T10:23:08.467Z,154229.06
2022-10-04T10:25:49.339Z,154310.94
2022-10-04T10:28:32.219Z,154227.78
2022-10-04T10:31:14.406Z,154316.19
2022-10-04T10:34:11.189Z,154340.88
2022-10-04T10:37:01.115Z,154312.22
2022-10-04T10:39:46.004Z,154251.16
2022-10-04T10:42:38.226Z,154357.72
2022-10-04T10:45:22.985Z,154440.91
2022-10-04T10:47:56.321Z,154524.13
2022-10-04T10:50:58.704Z,154304.44
2022-10-04T10:53:45.340Z,154214.81
2022-10-04T10:56:32.708Z,154199.19
2022-10-04T10:59:29.707Z,154186.22
2022-10-04T11:02:25.638Z,154213.47
2022-10-04T11:05:25.198Z,154144.63
2022-10-04T11:07:56.994Z,154143.34
2022-10-04T11:10:52.041Z,154161.53
2022-10-04T11:13:27.105Z,154156.34
2022-10-04T11:16:15.026Z,154139.44
2022-10-04T11:19:16.172Z,154194.00
2022-10-04T11:22:07.482Z,154174.50
2022-10-04T11:24:52.302Z,154225.19
2022-10-04T11:27:32.210Z,154195.31
2022-10-04T11:30:23.784Z,154142.06
2022-10-04T11:33:09.923Z,154065.41
2022-10-04T11:35:54.842Z,154039.47
2022-10-04T11:38:29.880Z,154029.09
2022-10-04T11:41:12.732Z,153995.28
2022-10-04T11:43:57.211Z,154013.47
2022-10-04T11:46:36.337Z,153993.97
2022-10-04T11:49:24.184Z,154029.09
2022-10-04T11:52:08.947Z,154016.03
2022-10-04T11:55:02.740Z,154000.47
2022-10-04T11:57:40.693Z,153996.59
2022-10-04T12:00:14.458Z,154016.03
2022-10-04T12:03:09.541Z,154026.50
2022-10-04T12:05:54.254Z,154038.19
2022-10-04T12:08:29.816Z,154025.19
2022-10-04T12:11:20.161Z,154058.94
2022-10-04T12:13:54.838Z,154105.72
2022-10-04T12:16:45.391Z,154090.09
2022-10-04T12:19:30.620Z,154125.16
2022-10-04T12:22:17.148Z,154109.56
2022-10-04T12:25:03.328Z,154095.28
2022-10-04T12:27:51.001Z,154153.72
2022-10-04T12:30:25.499Z,154199.19
2022-10-04T12:33:03.900Z,154238.16
2022-10-04T12:35:37.532Z,154366.84
2022-10-04T12:38:37.531Z,154385.06
2022-10-04T12:41:14.304Z,154375.94
2022-10-04T12:43:47.808Z,154374.66
2022-10-04T12:46:23.472Z,154417.50
2022-10-04T12:48:59.988Z,154299.25
2022-10-04T12:51:46.467Z,154181.03
2022-10-04T12:54:24.859Z,154156.34
2022-10-04T12:57:04.226Z,154149.81
2022-10-04T12:59:42.353Z,154245.97
2022-10-04T13:02:23.319Z,154265.47
2022-10-04T13:04:55.752Z,154260.28
2022-10-04T13:07:37.198Z,154226.50
2022-10-04T13:10:24.634Z,154196.63
2022-10-04T13:13:18.023Z,154192.69
2022-10-04T13:18:53.993Z,154222.56
2022-10-04T13:21:28.734Z,154245.97
2022-10-04T13:24:05.029Z,154361.66
2022-10-04T13:26:39.243Z,154320.09
2022-10-04T13:29:19.296Z,154356.44
2022-10-04T13:31:53.256Z,154439.63
2022-10-04T13:34:29.188Z,154456.50
2022-10-04T13:37:26.170Z,154421.41
2022-10-04T13:40:06.479Z,154368.13
2022-10-04T13:42:45.504Z,154442.19
2022-10-04T13:45:35.368Z,154342.16
2022-10-04T13:48:21.977Z,154338.25
2022-10-04T13:51:00.329Z,154362.94
2022-10-04T13:53:51.804Z,154382.44
2022-10-04T13:56:42.633Z,154395.44
2022-10-04T13:59:19.349Z,154333.03
2022-10-04T14:02:14.907Z,154325.28
2022-10-04T14:04:59.914Z,154251.16
2022-10-04T14:07:40.937Z,154261.56
2022-10-04T14:10:26.783Z,154245.97
2022-10-04T14:13:11.975Z,154291.44
2022-10-04T14:15:57.397Z,154239.44
2022-10-04T14:18:50.681Z,154275.84
2022-10-04T14:21:35.564Z,154230.41
2022-10-04T14:24:19.002Z,154222.56
2022-10-04T14:27:16.695Z,154200.53
2022-10-04T14:29:58.359Z,154201.81
2022-10-04T14:32:42.780Z,154208.28
2022-10-04T14:35:18.495Z,154182.31
2022-10-04T14:38:15.883Z,154168.03
2022-10-04T14:41:03.517Z,154177.13
2022-10-04T14:43:57.378Z,154143.34
2022-10-04T14:46:29.802Z,154138.16
2022-10-04T14:49:08.165Z,154103.09
2022-10-04T14:51:45.478Z,154105.72
2022-10-04T14:54:19.095Z,154114.75
2022-10-04T14:57:01.385Z,154062.84
2022-10-04T14:59:39.165Z,154018.66
2022-10-04T15:02:30.410Z,154003.06
2022-10-04T15:05:08.474Z,153979.69
2022-10-04T15:07:40.436Z,153964.13
2022-10-04T15:10:15.461Z,153931.66
2022-10-04T15:13:10.332Z,153896.63
2022-10-04T15:15:55.115Z,153899.22
2022-10-04T15:18:31.382Z,153859.00
2022-10-04T15:21:03.438Z,153881.03
2022-10-04T15:23:38.029Z,153882.38
2022-10-04T15:26:11.725Z,153836.91
2022-10-04T15:29:00.899Z,153792.78
2022-10-04T15:31:33.457Z,153774.66
2022-10-04T15:34:08.471Z,153782.41
2022-10-04T15:36:44.526Z,153756.47
2022-10-04T15:39:29.568Z,153742.22
2022-10-04T15:42:04.030Z,153718.91
2022-10-04T15:44:51.578Z,153715.00
2022-10-04T15:47:25.042Z,153722.75
2022-10-04T15:49:59.586Z,153698.03
2022-10-04T15:52:53.383Z,153711.09
2022-10-04T15:55:24.119Z,153677.31
2022-10-04T15:58:20.480Z,153665.66
2022-10-04T16:00:58.015Z,153685.09
2022-10-04T16:03:35.229Z,153665.66
2022-10-04T16:06:07.023Z,153663.03
2022-10-04T16:08:54.956Z,153653.94
2022-10-04T16:11:32.440Z,153617.63
2022-10-04T16:14:25.937Z,153613.75
2022-10-04T16:17:05.095Z,153570.97
2022-10-04T16:19:43.557Z,153561.91
2022-10-04T16:22:15.249Z,153558.00
2022-10-04T16:24:51.747Z,153570.97
2022-10-04T16:27:37.000Z,153577.44
2022-10-04T16:30:26.183Z,153551.53
2022-10-04T16:33:07.951Z,153541.16
2022-10-04T16:35:40.265Z,153504.81
2022-10-04T16:38:18.020Z,153546.34
2022-10-04T16:41:00.237Z,153495.78
2022-10-04T16:43:31.497Z,153500.97
2022-10-04T16:46:10.106Z,153498.34
2022-10-04T16:48:56.202Z,153513.91
2022-10-04T16:51:46.618Z,153482.81
2022-10-04T16:54:36.007Z,153462.06
2022-10-04T16:57:32.878Z,153438.72
2022-10-04T17:00:07.007Z,153415.38
2022-10-04T17:02:43.905Z,153432.25
2022-10-04T17:05:35.503Z,153393.38
2022-10-04T17:08:11.747Z,153395.94
2022-10-04T17:10:47.946Z,153336.28
2022-10-04T17:13:23.917Z,153293.53
2022-10-04T17:16:02.419Z,153267.59
2022-10-04T17:18:38.863Z,153242.97
2022-10-04T17:21:16.986Z,153208.00
2022-10-04T17:24:03.559Z,153200.25
2022-10-04T17:26:49.565Z,153169.16
2022-10-04T17:29:27.151Z,153209.31
2022-10-04T17:32:01.372Z,153214.50
2022-10-04T17:34:39.072Z,153249.47
2022-10-04T17:37:20.167Z,153252.03
2022-10-04T17:39:52.157Z,153281.84
2022-10-04T17:42:29.854Z,153217.06
2022-10-04T17:45:14.480Z,153174.34
2022-10-04T17:47:59.951Z,153161.38
2022-10-04T17:50:44.686Z,153173.03
2022-10-04T17:53:34.326Z,153139.38
2022-10-04T17:56:05.746Z,153123.81
2022-10-04T17:58:42.173Z,153117.34
2022-10-04T18:01:15.463Z,153109.59
2022-10-04T18:03:52.359Z,153131.59
2022-10-04T18:06:28.980Z,153139.38
2022-10-04T18:09:03.722Z,153114.78
2022-10-04T18:11:37.744Z,153161.38
2022-10-04T18:14:09.273Z,153165.28
2022-10-04T18:16:49.248Z,153178.19
2022-10-04T18:19:34.571Z,153149.75
2022-10-04T18:22:07.373Z,153104.38
2022-10-04T18:24:39.730Z,153088.84
2022-10-04T18:27:18.900Z,153087.56
2022-10-04T18:30:00.734Z,153079.81
2022-10-04T18:32:35.212Z,153046.13
2022-10-04T18:35:21.924Z,153049.97
2022-10-04T18:37:52.158Z,152999.50
2022-10-04T18:40:25.619Z,152937.34
2022-10-04T18:42:57.933Z,152875.19
2022-10-04T18:45:29.172Z,152841.53
2022-10-04T18:48:00.200Z,152815.66
2022-10-04T18:50:37.932Z,152794.97
2022-10-04T18:53:38.497Z,152775.56
2022-10-04T18:56:12.378Z,152763.94
2022-10-04T18:59:15.069Z,152757.44
2022-10-04T19:02:04.083Z,152747.09
2022-10-04T19:04:38.517Z,152729.00
2022-10-04T19:07:12.223Z,152714.75
2022-10-04T19:09:56.662Z,152710.88
2022-10-04T19:12:32.969Z,152717.31
2022-10-04T19:15:06.232Z,152699.25
2022-10-04T19:17:39.947Z,152695.34
2022-10-04T19:20:18.751Z,152679.84
2022-10-04T19:22:54.247Z,152669.50
2022-10-04T19:25:31.110Z,152657.81
2022-10-04T19:28:05.869Z,152646.19
2022-10-04T19:30:48.399Z,152642.31
2022-10-04T19:33:20.821Z,152634.53
2022-10-04T19:36:01.684Z,152624.19
2022-10-04T19:38:42.844Z,152620.34
2022-10-04T19:41:16.663Z,152613.84
2022-10-04T19:43:54.522Z,152617.75
2022-10-04T19:46:31.036Z,152603.50
2022-10-04T19:49:00.928Z,152597.06
2022-10-04T19:51:36.673Z,152594.44
2022-10-04T19:54:14.754Z,152585.44
2022-10-04T19:56:47.331Z,152580.22
2022-10-04T19:59:21.109Z,152584.09
2022-10-04T20:01:53.223Z,152603.50
2022-10-04T20:04:38.741Z,152626.78
2022-10-04T20:07:13.262Z,152624.19
2022-10-04T20:09:56.875Z,152613.84
2022-10-04T20:12:35.096Z,152603.50
2022-10-04T20:15:27.400Z,152591.88
2022-10-04T20:17:58.305Z,152580.22
2022-10-04T20:20:42.955Z,152577.66
2022-10-04T20:23:13.398Z,152600.94
2022-10-04T20:25:58.319Z,152637.13
2022-10-04T20:28:42.975Z,152639.75
2022-10-04T20:31:36.509Z,152655.25
2022-10-04T20:34:21.015Z,152690.19
2022-10-04T20:36:54.771Z,152697.91
2022-10-04T20:39:39.779Z,152716.03
2022-10-04T20:42:26.406Z,152735.47
2022-10-04T20:44:58.118Z,152718.59
2022-10-04T20:47:39.340Z,152708.25
2022-10-04T20:50:23.823Z,152706.97
2022-10-04T20:52:57.249Z,152678.50
2022-10-04T20:55:28.910Z,152648.75
2022-10-04T20:57:59.407Z,152608.69
2022-10-04T21:00:34.041Z,152600.94
2022-10-04T21:03:16.606Z,152589.28
2022-10-04T21:05:49.860Z,152608.69
2022-10-04T21:08:26.158Z,152599.63
2022-10-04T21:11:13.261Z,152577.66
2022-10-04T21:14:02.090Z,152598.34
2022-10-04T21:16:46.099Z,152624.19
2022-10-04T21:19:31.194Z,152603.50
2022-10-04T21:22:04.376Z,152593.16
2022-10-04T21:24:37.861Z,152606.13
2022-10-04T21:27:08.709Z,152628.06
2022-10-04T21:29:38.414Z,152625.53
2022-10-04T21:32:08.378Z,152611.28
2022-10-04T21:34:54.626Z,152590.59
2022-10-04T21:37:32.860Z,152559.53
2022-10-04T21:40:02.560Z,152536.28
2022-10-04T21:42:32.389Z,152511.72
2022-10-04T21:47:47.937Z,152494.91
2022-10-04T21:50:17.704Z,152500.06
2022-10-04T21:52:50.353Z,152479.38
2022-10-04T21:55:20.368Z,152493.63
2022-10-04T21:57:50.327Z,152479.38
2022-10-04T22:00:21.333Z,152470.31
2022-10-04T22:02:51.238Z,152456.06
2022-10-04T22:05:21.720Z,152443.16
2022-10-04T22:07:54.032Z,152441.81
2022-10-04T22:10:24.611Z,152463.84
2022-10-04T22:12:57.059Z,152461.22
2022-10-04T22:15:28.753Z,152466.38
2022-10-04T22:17:59.451Z,152450.88
2022-10-04T22:20:30.030Z,152478.09
2022-10-04T22:23:04.757Z,152553.09
2022-10-04T22:25:34.446Z,152545.31
2022-10-04T22:28:04.886Z,152554.38
2022-10-04T22:30:39.104Z,152533.69
2022-10-04T22:33:24.627Z,152520.75
2022-10-04T22:35:55.313Z,152496.16
2022-10-04T22:38:28.752Z,152493.63
2022-10-04T22:41:01.149Z,152479.38
2022-10-04T22:43:32.583Z,152485.84
2022-10-04T22:46:02.518Z,152479.38
2022-10-04T22:48:32.439Z,152485.84
2022-10-04T22:51:02.935Z,152467.78
2022-10-04T22:53:36.161Z,152457.38
2022-10-04T22:56:06.886Z,152447.03
2022-10-04T22:58:37.932Z,152439.28
2022-10-04T23:01:13.729Z,152423.75
2022-10-04T23:03:48.033Z,152406.94
2022-10-04T23:06:18.761Z,152394.03
2022-10-04T23:08:52.149Z,152377.22
2022-10-04T23:11:22.626Z,152364.31
2022-10-04T23:13:53.523Z,152350.09
2022-10-04T23:16:24.980Z,152332.00
2022-10-04T23:19:02.229Z,152307.44
2022-10-04T23:21:34.835Z,152263.50
2022-10-04T23:24:17.739Z,152250.63
2022-10-04T23:26:49.314Z,152226.06
2022-10-04T23:29:21.050Z,152197.63
2022-10-04T23:31:53.093Z,152178.25
2022-10-04T23:34:27.204Z,152180.88
2022-10-04T23:36:58.341Z,152186.03
2022-10-04T23:39:33.823Z,152184.69
2022-10-04T23:42:08.471Z,152179.53
2022-10-04T23:44:40.385Z,152162.75
2022-10-04T23:47:14.594Z,152156.31
2022-10-04T23:49:44.926Z,152153.72
2022-10-04T23:52:19.689Z,152138.22
2022-10-04T23:54:54.554Z,152131.78
2022-10-04T23:57:27.506Z,152100.75
2022-10-04T23:59:57.869Z,152094.31
